Terminal Aerodrome Forecast
Issued by NWS Twin Cities, MN

Home | Current Version | Previous Version | Graphics & Text | Print | Product List | Glossary On
Versions: 1 2 3 4 5 6 7 8 9 10 11 12 13 14 15 16 17 18 19 20 21 22 23 24 25 26 27 28 29
026
FTUS43 KMPX 191128
TAFMSP
TAF
KMSP 191128Z 1912/2018 11006KT P6SM SCT250
     FM191800 13010KT P6SM BKN250
     FM200300 13008KT P6SM OVC200 WS020/20044KT
     FM201600 14009KT 5SM SHRA BR VCTS OVC025CB=

USA.gov is the U.S. government's official web portal to all federal, state and local government web resources and services.